Time;durP1;ratioP1;P1;durP2;ratioP2;P2;SDS_P1;SDS_P2;PMS_P1;PMS_P2;Temp;Humidity;BMP_temperature;BMP_pressure;BME280_temperature;BME280_humidity;BME280_pressure;Samples;Min_cycle;Max_cycle;Signal;HPM_P1;HPM_P2
2022/06/11 00:00:03;;;;;;;;;22.00;22.00;;;;;17.89;95.61;99625.44;6277630;20;2822150;-61
2022/06/11 00:02:32;;;;;;;;;21.00;19.00;;;;;17.87;95.32;99620.13;6282620;20;3573149;-60
2022/06/11 00:05:01;;;;;;;;;24.67;22.67;;;;;17.83;96.25;99626.03;6315460;20;3579409;-60
2022/06/11 00:07:30;;;;;;;;;22.50;21.00;;;;;17.91;95.17;99623.44;6280502;20;2835673;-60
2022/06/11 00:09:59;;;;;;;;;25.00;25.00;;;;;17.65;96.14;99626.69;6282062;20;3586747;-61
2022/06/11 00:12:28;;;;;;;;;24.00;24.00;;;;;17.71;97.03;99626.09;6313667;20;3588914;-60
2022/06/11 00:14:58;;;;;;;;;27.33;24.33;;;;;17.73;96.30;99620.53;6279868;20;2850362;-60
2022/06/11 00:17:27;;;;;;;;;25.33;25.33;;;;;17.80;95.58;99631.72;6314256;20;3589860;-61
2022/06/11 00:19:56;;;;;;;;;24.00;22.67;;;;;17.74;95.85;99627.69;6283633;20;3578365;-61
2022/06/11 00:22:26;;;;;;;;;24.67;24.67;;;;;17.77;95.02;99622.84;6279671;20;3582515;-60
2022/06/11 00:24:54;;;;;;;;;26.67;25.00;;;;;17.67;95.57;99627.41;6312837;20;3578355;-60
2022/06/11 00:27:23;;;;;;;;;24.67;23.00;;;;;17.72;95.32;99629.66;6282637;20;3581603;-61
2022/06/11 00:29:53;;;;;;;;;25.67;24.33;;;;;17.64;95.58;99634.94;6278319;20;2844154;-61
2022/06/11 00:32:22;;;;;;;;;26.33;20.33;;;;;17.63;94.49;99628.66;6316820;20;3575377;-61
2022/06/11 00:34:53;;;;;;;;;27.00;23.00;;;;;17.67;95.00;99623.84;6278746;20;2842995;-61
2022/06/11 00:37:22;;;;;;;;;22.00;19.00;;;;;17.57;94.68;99629.25;6314247;20;3570022;-61
2022/06/11 00:39:51;;;;;;;;;25.33;23.67;;;;;17.64;94.92;99634.94;6279468;20;2840926;-61
2022/06/11 00:42:29;;;;;;;;;26.33;23.33;;;;;17.58;95.31;99639.09;6320635;20;3578431;-61
2022/06/11 00:45:38;;;;;;;;;23.67;23.67;;;;;17.68;94.23;99648.13;6289073;20;3607542;-61
2022/06/11 00:48:34;;;;;;;;;25.33;23.33;;;;;17.77;93.32;99647.28;6285568;20;2846152;-60
2022/06/11 00:51:12;;;;;;;;;30.33;25.33;;;;;17.72;93.11;99654.09;6315893;20;3591912;-61
2022/06/11 00:53:49;;;;;;;;;23.33;23.33;;;;;17.78;92.87;99656.28;6285429;20;3575229;-60
2022/06/11 00:57:00;;;;;;;;;27.67;23.67;;;;;17.66;93.12;99660.97;6283586;20;2851569;-60
2022/06/11 00:59:49;;;;;;;;;23.00;23.00;;;;;17.64;93.19;99659.38;6313442;20;2846631;-60
2022/06/11 01:02:18;;;;;;;;;19.00;19.00;;;;;17.58;94.09;99654.53;6312726;20;2483717;-61
2022/06/11 01:04:58;;;;;;;;;23.33;21.67;;;;;17.39;96.89;99652.63;6283611;20;2833618;-61
2022/06/11 01:08:01;;;;;;;;;22.67;22.67;;;;;17.63;93.29;99646.81;6319793;20;3574182;-61
2022/06/11 01:11:21;;;;;;;;;25.33;25.33;;;;;17.73;92.45;99643.13;6284111;20;3593092;-60
2022/06/11 01:14:35;;;;;;;;;23.33;23.33;;;;;17.69;91.92;99641.69;6284717;20;3575267;-61
2022/06/11 01:18:07;;;;;;;;;24.67;23.67;;;;;17.75;91.20;99641.13;6280928;20;2847172;-60
2022/06/11 01:21:17;;;;;;;;;24.33;24.33;;;;;17.80;90.69;99642.56;6314671;20;3589802;-62
2022/06/11 01:24:55;;;;;;;;;23.50;22.00;;;;;17.67;91.44;99632.84;6285282;20;2838775;-61
2022/06/11 01:28:23;;;;;;;;;22.67;21.00;;;;;17.87;90.20;99632.88;6287050;20;3566931;-60
2022/06/11 01:31:06;;;;;;;;;24.33;22.33;;;;;17.70;90.67;99632.53;6318605;20;3572106;-59
2022/06/11 01:33:52;;;;;;;;;25.00;24.33;;;;;17.77;90.55;99631.00;6283979;20;3579471;-60
2022/06/11 01:36:41;;;;;;;;;23.00;21.00;;;;;17.64;91.11;99637.66;6287312;20;3577336;-60
2022/06/11 01:39:35;;;;;;;;;25.00;25.00;;;;;17.72;90.53;99635.09;6285440;20;3601270;-60
2022/06/11 01:42:31;;;;;;;;;20.00;20.00;;;;;17.64;91.21;99633.13;6285499;20;3560678;-60
2022/06/11 01:45:27;;;;;;;;;24.00;22.33;;;;;17.72;90.60;99633.28;6280537;20;2846199;-61
2022/06/11 01:47:59;;;;;;;;;24.00;23.33;;;;;17.71;90.66;99636.97;6315539;20;3576353;-60
2022/06/11 01:50:35;;;;;;;;;23.00;22.00;;;;;17.60;91.12;99628.94;6281516;20;2844051;-58
2022/06/11 01:53:51;;;;;;;;;22.00;20.50;;;;;17.76;90.17;99641.97;6282384;20;2840864;-60
2022/06/11 01:57:10;;;;;;;;;26.33;20.67;;;;;17.70;90.49;99643.41;6284747;20;3582607;-61
2022/06/11 02:00:09;;;;;;;;;21.67;21.67;;;;;17.49;90.80;99639.94;6284912;20;3567965;-60
2022/06/11 02:03:06;;;;;;;;;22.33;22.33;;;;;17.74;90.32;99639.38;6283475;20;3583593;-61
2022/06/11 02:06:16;;;;;;;;;25.33;23.33;;;;;17.62;90.88;99639.69;6317364;20;3583566;-60
2022/06/11 02:08:55;;;;;;;;;22.00;18.33;;;;;17.68;90.83;99639.97;6280456;20;2500262;-60
2022/06/11 02:11:43;;;;;;;;;23.33;21.00;;;;;17.60;91.16;99630.81;6312538;20;3581569;-60
2022/06/11 02:15:03;;;;;;;;;22.67;22.67;;;;;17.57;91.32;99640.09;6276435;20;2840873;-60
2022/06/11 02:17:42;;;;;;;;;24.00;24.00;;;;;17.58;91.96;99638.25;6313118;20;3570059;-61
2022/06/11 02:21:06;;;;;;;;;26.67;24.00;;;;;17.66;91.54;99633.81;6281087;20;3595074;-61
2022/06/11 02:23:58;;;;;;;;;26.00;24.67;;;;;17.68;91.86;99639.97;6276488;20;3584618;-61
2022/06/11 02:26:35;;;;;;;;;23.67;23.33;;;;;17.58;91.97;99639.09;6312508;20;3589860;-61
2022/06/11 02:29:08;;;;;;;;;24.00;23.00;;;;;17.59;92.43;99643.53;6294369;20;3577454;-61
2022/06/11 02:31:50;;;;;;;;;24.33;22.33;;;;;17.59;92.04;99651.69;6283142;20;3580452;-62
2022/06/11 02:34:23;;;;;;;;;30.33;26.33;;;;;17.55;93.20;99650.25;6285054;20;3589864;-60
2022/06/11 02:37:02;;;;;;;;;28.33;26.67;;;;;17.72;92.12;99651.38;6283300;20;3586680;-60
2022/06/11 02:39:38;;;;;;;;;28.33;24.00;;;;;17.82;91.75;99651.44;6317090;20;3592091;-63
2022/06/11 02:42:12;;;;;;;;;27.33;24.33;;;;;17.64;92.14;99643.97;6282549;20;3589889;-61
2022/06/11 02:44:41;;;;;;;;;22.50;22.50;;;;;17.84;90.87;99655.75;6281536;20;2837768;-61
2022/06/11 02:47:13;;;;;;;;;20.67;19.33;;;;;17.82;90.20;99663.16;6281711;20;3569034;-61
2022/06/11 02:49:43;;;;;;;;;21.00;21.00;;;;;17.91;90.37;99672.34;6279978;20;2824356;-61
2022/06/11 02:52:22;;;;;;;;;21.00;20.33;;;;;17.98;90.38;99673.47;6288113;20;3578475;-61
2022/06/11 02:54:52;;;;;;;;;23.00;21.00;;;;;17.99;90.19;99669.78;6285520;20;3569050;-61
2022/06/11 02:57:29;;;;;;;;;23.33;23.33;;;;;17.85;91.28;99670.16;6285562;20;3581514;-62
2022/06/11 02:59:58;;;;;;;;;24.33;24.33;;;;;17.82;91.51;99673.16;6284806;20;3583632;-61
2022/06/11 03:02:28;;;;;;;;;24.33;24.00;;;;;18.04;91.03;99688.38;6281391;20;2848155;-61
2022/06/11 03:04:57;;;;;;;;;21.33;21.00;;;;;18.02;90.99;99683.06;6318408;20;3563756;-62
2022/06/11 03:07:26;;;;;;;;;23.00;21.33;;;;;18.02;90.90;99684.94;6282023;20;3565961;-60
2022/06/11 03:09:54;;;;;;;;;24.00;21.33;;;;;18.09;90.61;99697.81;6317630;20;3577382;-61
2022/06/11 03:12:24;;;;;;;;;24.00;23.00;;;;;17.99;90.45;99702.38;6282592;20;2843098;-61
2022/06/11 03:14:53;;;;;;;;;23.00;23.00;;;;;17.89;91.23;99687.91;6318143;20;3580465;-61
2022/06/11 03:17:21;;;;;;;;;21.33;20.00;;;;;17.99;90.72;99684.19;6285412;20;3577346;-61
2022/06/11 03:19:50;;;;;;;;;24.33;23.33;;;;;18.06;91.07;99692.66;6285796;20;3571210;-61
2022/06/11 03:22:19;;;;;;;;;22.33;21.00;;;;;18.02;90.62;99688.50;6282483;20;3570597;-61
2022/06/11 03:24:48;;;;;;;;;24.33;21.67;;;;;18.08;91.05;99696.06;6286548;20;3572107;-61
2022/06/11 03:27:17;;;;;;;;;21.00;18.00;;;;;18.23;90.32;99698.38;6284037;20;3560652;-61
2022/06/11 03:29:46;;;;;;;;;27.00;22.00;;;;;18.16;90.39;99704.38;6285643;20;3589795;-61
2022/06/11 03:32:15;;;;;;;;;26.33;25.00;;;;;18.25;90.29;99702.66;6286113;20;3585873;-61
2022/06/11 03:34:46;;;;;;;;;19.33;19.33;;;;;18.29;89.77;99708.66;6278952;20;2836706;-61
2022/06/11 03:37:15;;;;;;;;;26.67;22.67;;;;;18.46;90.65;99713.38;6316823;20;3583657;-62
2022/06/11 03:39:44;;;;;;;;;26.33;25.00;;;;;18.41;89.52;99715.69;6285816;20;3602320;-63
2022/06/11 03:42:13;;;;;;;;;22.67;22.67;;;;;18.45;89.70;99722.53;6285203;20;3577349;-63
2022/06/11 03:44:42;;;;;;;;;22.00;20.00;;;;;18.53;89.41;99727.25;6280866;20;2839828;-63
2022/06/11 03:47:11;;;;;;;;;21.67;21.67;;;;;18.60;89.70;99726.53;6284493;20;3577335;-63
2022/06/11 03:49:40;;;;;;;;;19.33;17.67;;;;;18.63;88.19;99728.94;6280933;20;3577371;-61
2022/06/11 03:52:10;;;;;;;;;20.00;19.00;;;;;18.83;87.55;99726.25;6281688;20;2835660;-63
2022/06/11 03:54:41;;;;;;;;;18.00;18.00;;;;;18.91;87.84;99731.81;6280369;20;2831530;-63
2022/06/11 03:57:10;;;;;;;;;21.33;20.00;;;;;18.96;87.44;99732.22;6284044;20;3566963;-63
2022/06/11 03:59:39;;;;;;;;;21.00;19.50;;;;;18.93;86.22;99728.94;6278640;20;2836122;-64
2022/06/11 04:02:08;;;;;;;;;23.67;20.67;;;;;19.01;86.77;99729.03;6286553;20;3573206;-61
2022/06/11 04:04:37;;;;;;;;;18.33;18.33;;;;;19.08;85.89;99722.88;6281085;20;2835695;-63
2022/06/11 04:07:07;;;;;;;;;20.33;20.33;;;;;19.05;85.95;99717.72;6314820;20;3550226;-63
2022/06/11 04:09:42;;;;;;;;;21.67;20.67;;;;;19.16;85.07;99724.84;6275056;20;2845188;-64
2022/06/11 04:12:18;;;;;;;;;21.67;19.67;;;;;19.25;84.20;99725.84;6314589;20;3562762;-64
2022/06/11 04:14:50;;;;;;;;;25.00;21.00;;;;;19.21;84.39;99732.56;6283241;20;3490887;-64
2022/06/11 04:17:31;;;;;;;;;20.67;19.67;;;;;19.43;83.94;99725.88;6317415;20;3575298;-64
2022/06/11 04:20:00;;;;;;;;;20.00;20.00;;;;;19.64;82.40;99729.25;6277714;20;2835693;-65
2022/06/11 04:22:29;;;;;;;;;21.33;20.33;;;;;19.78;82.98;99736.06;6279653;20;2848304;-64
2022/06/11 04:24:58;;;;;;;;;23.00;19.67;;;;;19.71;82.26;99729.50;6312578;20;3573181;-64
2022/06/11 04:27:27;;;;;;;;;18.50;18.50;;;;;19.79;81.91;99735.06;6279070;20;2834635;-61
2022/06/11 04:29:58;;;;;;;;;18.00;18.00;;;;;19.69;82.56;99734.25;6281596;20;3568976;-64
2022/06/11 04:32:29;;;;;;;;;18.33;18.33;;;;;19.74;81.96;99734.66;6280091;20;2839856;-63
2022/06/11 04:34:58;;;;;;;;;20.67;17.33;;;;;19.81;81.70;99729.47;6315077;20;3577304;-62
2022/06/11 04:37:30;;;;;;;;;18.67;18.67;;;;;19.87;81.45;99746.03;6285414;20;3572128;-61
2022/06/11 04:40:03;;;;;;;;;18.00;17.00;;;;;19.78;81.93;99737.94;6275965;20;2831516;-61
2022/06/11 04:42:32;;;;;;;;;19.00;19.00;;;;;19.78;81.86;99738.81;6281818;20;2840914;-62
2022/06/11 04:45:05;;;;;;;;;20.00;19.00;;;;;19.87;82.54;99745.19;6280582;20;2839894;-62
2022/06/11 04:47:34;;;;;;;;;21.50;20.50;;;;;19.91;81.92;99743.88;6280460;20;2839859;-62
2022/06/11 04:50:07;;;;;;;;;19.00;19.00;;;;;19.88;81.40;99742.34;6280390;20;2835752;-62
2022/06/11 04:52:36;;;;;;;;;16.00;15.00;;;;;20.04;81.55;99757.16;6279040;20;2810665;-62
2022/06/11 04:55:05;;;;;;;;;17.67;17.67;;;;;20.09;81.27;99754.78;6285618;20;3575246;-61
2022/06/11 04:57:35;;;;;;;;;18.00;18.00;;;;;20.17;81.53;99758.50;6281247;20;2839881;-62
2022/06/11 05:00:08;;;;;;;;;17.67;17.67;;;;;20.28;81.09;99762.84;6313688;20;3571058;-62
2022/06/11 05:02:37;;;;;;;;;17.00;16.00;;;;;20.20;80.50;99760.06;6280282;20;2829415;-62
2022/06/11 05:05:08;;;;;;;;;20.67;18.67;;;;;20.31;80.07;99757.09;6282180;20;3571281;-64
2022/06/11 05:07:36;;;;;;;;;18.00;16.50;;;;;20.60;79.92;99761.47;6274357;20;2829395;-61
2022/06/11 05:10:07;;;;;;;;;15.67;15.67;;;;;20.57;78.73;99759.91;6279537;20;3550359;-61
2022/06/11 05:12:36;;;;;;;;;11.00;9.67;;;;;20.58;76.81;99763.50;6296205;20;2779417;-62
2022/06/11 05:15:06;;;;;;;;;21.33;19.33;;;;;20.91;77.48;99755.59;6312291;20;3575228;-61
2022/06/11 05:17:35;;;;;;;;;15.67;15.67;;;;;21.15;75.70;99761.22;6283988;20;3547093;-62
2022/06/11 05:20:06;;;;;;;;;19.00;18.00;;;;;21.25;75.25;99753.78;6314007;20;3571133;-61
2022/06/11 05:22:36;;;;;;;;;18.00;15.50;;;;;21.39;74.79;99755.06;6278348;20;2821077;-61
2022/06/11 05:25:07;;;;;;;;;15.00;15.00;;;;;21.69;73.78;99756.41;6281667;20;2811805;-61
2022/06/11 05:27:38;;;;;;;;;18.00;17.00;;;;;21.75;74.10;99762.22;6283381;20;2483752;-62
2022/06/11 05:30:30;;;;;;;;;13.33;13.33;;;;;21.88;73.02;99759.88;6316730;20;2483707;-63
2022/06/11 05:33:00;;;;;;;;;11.33;11.33;;;;;21.61;73.17;99769.19;6317011;20;2792003;-64
2022/06/11 05:35:32;;;;;;;;;17.00;16.00;;;;;21.62;71.91;99763.56;6318560;20;2817968;-67
2022/06/11 05:38:07;;;;;;;;;15.33;14.00;;;;;22.09;71.68;99770.38;6282332;20;2487831;-59
2022/06/11 05:40:41;;;;;;;;;15.00;14.33;;;;;22.41;71.70;99766.03;6321666;20;3530417;-59
2022/06/11 05:43:12;;;;;;;;;13.67;13.67;;;;;22.09;70.98;99768.53;6318291;20;3530476;-60
2022/06/11 05:46:13;;;;;;;;;12.50;12.50;;;;;22.04;70.67;99770.06;6320611;20;2794050;-60
2022/06/11 05:48:58;;;;;;;;;17.00;15.00;;;;;22.26;70.83;99768.59;6288382;20;3549360;-60
2022/06/11 05:51:43;;;;;;;;;17.50;15.00;;;;;22.24;70.82;99770.63;6314843;20;2818078;-60
2022/06/11 05:54:20;;;;;;;;;21.00;17.00;;;;;22.01;70.14;99773.09;6288031;20;2840419;-59
2022/06/11 05:56:49;;;;;;;;;15.50;14.00;;;;;22.11;70.88;99779.28;6291579;20;2483660;-59
2022/06/11 05:59:29;;;;;;;;;13.33;13.33;;;;;22.52;69.30;99783.00;6319618;20;2500260;-60
2022/06/11 06:02:03;;;;;;;;;15.00;15.00;;;;;23.05;68.84;99777.22;6320694;20;3538775;-60
2022/06/11 06:04:32;;;;;;;;;12.50;11.00;;;;;23.07;68.05;99780.66;6317907;20;2786730;-59
2022/06/11 06:07:00;;;;;;;;;14.00;13.67;;;;;23.14;67.77;99781.63;6323522;20;3533574;-60
2022/06/11 06:09:29;;;;;;;;;17.00;16.00;;;;;23.76;66.56;99784.59;6317646;20;3551340;-60
2022/06/11 06:11:58;;;;;;;;;15.00;15.00;;;;;23.26;65.92;99788.47;6318984;20;2806515;-55
2022/06/11 06:14:27;;;;;;;;;15.00;15.00;;;;;23.59;64.76;99799.34;6285498;20;3530462;-59
2022/06/11 06:16:55;;;;;;;;;12.33;12.33;;;;;23.43;64.69;99801.13;6288084;20;3522106;-60
2022/06/11 06:19:44;;;;;;;;;13.67;12.00;;;;;23.64;64.48;99795.06;6284603;20;3528398;-60
2022/06/11 06:22:12;;;;;;;;;17.50;16.00;;;;;23.44;64.15;99802.84;6289142;20;2824242;-60
2022/06/11 06:24:47;;;;;;;;;13.67;13.67;;;;;24.10;62.42;99803.47;6287975;20;3524197;-60
2022/06/11 06:27:16;;;;;;;;;14.00;14.00;;;;;24.62;62.76;99806.63;6285848;20;3533578;-60
2022/06/11 06:29:44;;;;;;;;;12.67;12.67;;;;;24.27;61.75;99804.22;6290577;20;2794030;-60
2022/06/11 06:32:13;;;;;;;;;12.67;12.67;;;;;24.61;58.80;99800.28;6316898;20;3524219;-60
2022/06/11 06:34:42;;;;;;;;;13.67;11.00;;;;;24.51;57.82;99794.16;6287554;20;3520046;-61
2022/06/11 06:37:11;;;;;;;;;13.67;12.33;;;;;24.02;58.96;99783.47;6316134;20;3520043;-63
2022/06/11 06:39:40;;;;;;;;;13.00;12.33;;;;;24.34;58.61;99796.16;6317185;20;2483603;-63
2022/06/11 06:42:08;;;;;;;;;11.33;11.33;;;;;24.50;58.26;99786.97;6321490;20;2483674;-63
2022/06/11 06:44:37;;;;;;;;;11.00;11.00;;;;;24.91;56.66;99794.94;6314884;20;3514877;-63
2022/06/11 06:47:06;;;;;;;;;11.67;10.67;;;;;25.34;57.09;99800.72;6316293;20;3515915;-65
2022/06/11 06:49:35;;;;;;;;;9.67;9.67;;;;;25.66;57.26;99812.41;6318483;20;2776406;-60
2022/06/11 06:52:04;;;;;;;;;10.00;10.00;;;;;25.92;56.15;99810.06;6317713;20;3500407;-59
2022/06/11 06:54:33;;;;;;;;;11.00;11.00;;;;;25.07;57.42;99794.78;6317090;20;3520108;-58
2022/06/11 06:57:02;;;;;;;;;10.00;10.00;;;;;25.70;57.34;99808.22;6324886;20;2792958;-60
2022/06/11 06:59:33;;;;;;;;;12.88;12.88;;;;;26.03;56.41;99817.81;6343093;20;3525224;-61
2022/06/11 07:02:03;;;;;;;;;11.33;11.33;;;;;25.67;56.49;99812.22;6321191;20;3536678;-60
2022/06/11 07:04:31;;;;;;;;;12.00;12.00;;;;;25.34;57.87;99811.72;6322855;20;3532519;-59
2022/06/11 07:07:00;;;;;;;;;12.00;12.00;;;;;24.53;57.42;99814.91;6321413;20;2799206;-59
2022/06/11 07:09:29;;;;;;;;;15.00;13.00;;;;;24.58;58.29;99819.03;6315607;20;3504383;-57
2022/06/11 07:11:58;;;;;;;;;6.00;5.60;;;;;24.37;58.10;99819.63;6344467;20;2750311;-57
2022/06/11 07:14:27;;;;;;;;;11.33;10.67;;;;;24.51;56.50;99821.63;6286249;20;3514952;-55
2022/06/11 07:17:02;;;;;;;;;11.00;11.00;;;;;25.73;55.01;99818.88;6285477;20;3534757;-59
2022/06/11 07:19:40;;;;;;;;;11.33;11.33;;;;;25.89;54.53;99824.22;6290458;20;2789817;-59
2022/06/11 07:22:26;;;;;;;;;13.33;11.33;;;;;26.31;53.97;99824.53;6315536;20;3513842;-59
2022/06/11 07:24:54;;;;;;;;;11.00;9.00;;;;;26.17;51.32;99818.00;6317335;20;2483699;-58
2022/06/11 07:27:29;;;;;;;;;10.33;10.33;;;;;26.73;52.24;99823.78;6321010;20;2483664;-60
2022/06/11 07:30:10;;;;;;;;;9.00;9.00;;;;;26.83;50.42;99829.81;6318655;20;2750472;-59
2022/06/11 07:32:43;;;;;;;;;10.00;10.00;;;;;25.32;54.72;99819.28;6321251;20;2794374;-59
2022/06/11 07:35:15;;;;;;;;;8.67;8.67;;;;;25.28;55.88;99809.72;6315371;20;3467930;-59
2022/06/11 07:37:48;;;;;;;;;11.00;11.00;;;;;25.51;54.39;99813.25;6313845;20;3513887;-60
2022/06/11 07:40:19;;;;;;;;;13.00;11.00;;;;;25.45;55.99;99819.50;6314749;20;3518995;-60
2022/06/11 07:42:47;;;;;;;;;11.00;11.00;;;;;25.57;56.49;99818.00;6284892;20;3510630;-60
2022/06/11 07:45:16;;;;;;;;;12.33;12.00;;;;;24.72;57.52;99827.34;6321728;20;3532600;-59
2022/06/11 07:47:54;;;;;;;;;13.00;12.00;;;;;24.73;58.70;99820.78;6322071;20;2803452;-61
2022/06/11 07:50:36;;;;;;;;;10.67;10.67;;;;;24.54;57.59;99826.78;6313375;20;3517998;-60
2022/06/11 07:53:06;;;;;;;;;10.67;10.00;;;;;24.87;57.04;99821.88;6321780;20;2789869;-59
2022/06/11 07:55:38;;;;;;;;;14.00;12.33;;;;;24.63;57.46;99831.16;6321318;20;2786728;-61
2022/06/11 07:58:09;;;;;;;;;12.00;12.00;;;;;25.31;58.03;99823.09;6316810;20;3511693;-60
2022/06/11 08:00:47;;;;;;;;;11.67;11.67;;;;;24.97;55.85;99824.41;6287675;20;2483650;-55
2022/06/11 08:03:18;;;;;;;;;9.00;9.00;;;;;25.00;56.33;99826.75;6314177;20;3474328;-58
2022/06/11 08:05:48;;;;;;;;;11.33;11.33;;;;;24.83;56.83;99826.06;6319700;20;2483576;-59
2022/06/11 08:08:19;;;;;;;;;10.33;10.33;;;;;24.91;55.91;99839.72;6314418;20;3513773;-60
2022/06/11 08:10:48;;;;;;;;;12.50;11.50;;;;;25.18;57.85;99835.56;6315892;20;3340860;-58
2022/06/11 08:13:17;;;;;;;;;12.00;10.00;;;;;25.06;57.80;99833.41;6315906;20;3510641;-59
2022/06/11 08:15:49;;;;;;;;;10.33;10.33;;;;;24.99;57.82;99836.06;6317949;20;3513808;-60
2022/06/11 08:18:20;;;;;;;;;12.00;12.00;;;;;24.96;57.19;99841.91;6319120;20;2483611;-59
2022/06/11 08:20:52;;;;;;;;;14.00;13.00;;;;;24.91;57.06;99838.88;6314750;20;3534598;-57
2022/06/11 08:23:23;;;;;;;;;10.00;10.00;;;;;24.69;57.02;99846.91;6284858;20;3515890;-59
2022/06/11 08:25:53;;;;;;;;;12.00;11.67;;;;;25.33;56.61;99845.72;6284098;20;3521073;-59
2022/06/11 08:28:22;;;;;;;;;11.00;11.00;;;;;24.94;56.11;99844.00;6281436;20;3509649;-58
2022/06/11 08:30:51;;;;;;;;;7.00;7.00;;;;;24.82;55.82;99840.81;6324747;20;2742996;-59
2022/06/11 08:33:20;;;;;;;;;13.00;11.00;;;;;24.75;57.45;99851.69;6315886;20;3519079;-61
2022/06/11 08:35:49;;;;;;;;;11.00;11.00;;;;;24.99;56.66;99844.31;6280754;20;3510632;-59
2022/06/11 08:38:18;;;;;;;;;10.00;10.00;;;;;25.13;55.58;99839.88;6316481;20;3515854;-59
2022/06/11 08:40:53;;;;;;;;;9.33;9.33;;;;;25.23;55.02;99853.41;6322187;20;2756530;-58
2022/06/11 08:43:38;;;;;;;;;9.00;9.00;;;;;24.95;55.91;99845.69;6316820;20;2756510;-61
2022/06/11 08:46:19;;;;;;;;;9.00;9.00;;;;;26.24;53.79;99851.97;6322802;20;2741984;-60
2022/06/11 08:49:38;;;;;;;;;6.00;5.00;;;;;26.52;51.40;99849.41;6339613;20;2747226;-58
2022/06/11 08:52:24;;;;;;;;;9.33;7.33;;;;;25.79;54.03;99854.72;6282437;20;2756499;-59
2022/06/11 08:54:53;;;;;;;;;9.33;9.33;;;;;25.90;54.93;99850.66;6319492;20;2775245;-60
2022/06/11 08:58:03;;;;;;;;;10.33;9.00;;;;;26.66;52.04;99858.66;6314715;20;2765295;-61
2022/06/11 09:01:04;;;;;;;;;8.00;8.00;;;;;26.34;52.73;99846.19;6317140;20;2747258;-60
2022/06/11 09:04:09;;;;;;;;;10.00;9.00;;;;;25.74;53.36;99835.16;6317967;20;3496073;-60
2022/06/11 09:06:55;;;;;;;;;8.00;8.00;;;;;26.24;53.16;99840.97;6328010;20;2741924;-60
2022/06/11 09:10:26;;;;;;;;;9.67;9.00;;;;;26.43;52.48;99837.59;6314944;20;3479520;-60
2022/06/11 09:14:23;;;;;;;;;7.00;5.33;;;;;26.71;50.48;99834.13;6322449;20;2727464;-59
2022/06/11 09:18:09;;;;;;;;;9.00;9.00;;;;;27.95;49.23;99844.75;6324914;20;2747213;-60
2022/06/11 09:20:58;;;;;;;;;8.00;8.00;;;;;28.34;48.01;99838.56;6320192;20;2747115;-61
2022/06/11 09:23:51;;;;;;;;;9.00;9.00;;;;;27.24;49.11;99836.56;6320678;20;2739970;-61
2022/06/11 09:26:45;;;;;;;;;9.00;9.00;;;;;27.90;49.86;99836.22;6325098;20;2748357;-61
2022/06/11 09:29:28;;;;;;;;;15.67;12.33;;;;;28.53;47.00;99836.97;6320923;20;3536763;-60
2022/06/11 09:32:28;;;;;;;;;11.00;10.00;;;;;28.41;47.84;99835.81;6314489;20;2787083;-60
2022/06/11 09:35:22;;;;;;;;;9.33;9.33;;;;;29.09;46.13;99833.91;6317730;20;3488879;-61
2022/06/11 09:38:26;;;;;;;;;9.00;9.00;;;;;27.98;47.86;99827.78;6318078;20;3455615;-48
2022/06/11 09:41:19;;;;;;;;;9.33;9.33;;;;;28.78;45.19;99833.63;6319838;20;2771316;-50
2022/06/11 09:45:00;;;;;;;;;7.00;7.00;;;;;29.29;46.12;99835.84;6330705;20;2729439;-52
2022/06/11 09:48:11;;;;;;;;;4.80;4.80;;;;;28.62;44.31;99830.19;6345519;20;2738815;-49
2022/06/11 09:51:22;;;;;;;;;6.00;6.00;;;;;29.01;44.40;99817.50;6290268;20;2741900;-49
2022/06/11 09:54:23;;;;;;;;;9.00;8.00;;;;;29.27;44.15;99816.69;6321999;20;2756537;-47
2022/06/11 09:57:43;;;;;;;;;8.67;7.33;;;;;28.96;44.77;99824.72;6319229;20;2743059;-48
2022/06/11 10:00:41;;;;;;;;;9.67;9.67;;;;;28.93;45.55;99820.47;6323617;20;2771115;-51
2022/06/11 10:04:01;;;;;;;;;7.67;7.00;;;;;29.03;45.00;99825.59;6318733;20;2742037;-50
2022/06/11 10:06:37;;;;;;;;;9.00;8.00;;;;;29.46;41.78;99823.25;6315300;20;2754450;-49
2022/06/11 10:09:40;;;;;;;;;4.20;4.20;;;;;29.26;43.64;99823.28;6342791;20;2754532;-48
2022/06/11 10:12:26;;;;;;;;;8.00;8.00;;;;;29.72;42.05;99827.09;6289801;20;2750242;-47
2022/06/11 10:15:25;;;;;;;;;7.00;6.33;;;;;29.38;43.24;99815.19;6319625;20;2737771;-49
2022/06/11 10:18:31;;;;;;;;;7.67;7.67;;;;;29.56;43.33;99822.81;6318095;20;2752315;-52
2022/06/11 10:21:15;;;;;;;;;7.00;7.00;;;;;29.37;42.07;99819.03;6319485;20;2739844;-51
2022/06/11 10:23:56;;;;;;;;;9.00;7.67;;;;;29.81;41.54;99811.97;6319225;20;2756530;-53
2022/06/11 10:26:38;;;;;;;;;8.00;7.00;;;;;29.14;43.15;99808.38;6322200;20;2748171;-49
2022/06/11 10:29:39;;;;;;;;;9.00;9.00;;;;;29.06;42.60;99803.91;6317654;20;2754556;-49
2022/06/11 10:32:14;;;;;;;;;7.67;7.67;;;;;29.42;42.41;99791.56;6320985;20;2745077;-50
2022/06/11 10:35:01;;;;;;;;;10.33;8.00;;;;;30.00;44.04;99799.13;6320650;20;2766918;-52
2022/06/11 10:37:49;;;;;;;;;8.00;8.00;;;;;29.70;42.72;99787.69;6319820;20;2747127;-51
2022/06/11 10:40:33;;;;;;;;;7.00;7.00;;;;;29.50;42.43;99788.56;6317626;20;2743118;-48
2022/06/11 10:44:12;;;;;;;;;9.00;9.00;;;;;29.85;42.47;99793.00;6315936;20;3455864;-53
2022/06/11 10:46:42;;;;;;;;;7.00;7.00;;;;;30.17;40.79;99794.78;6317770;20;2744126;-46
2022/06/11 10:49:18;;;;;;;;;4.20;4.20;;;;;30.24;40.67;99789.25;6343684;20;2726280;-46
2022/06/11 10:52:46;;;;;;;;;9.67;9.67;;;;;29.05;44.58;99785.63;6314932;20;2769038;-45
2022/06/11 10:55:40;;;;;;;;;8.67;7.67;;;;;28.73;43.61;99780.91;6319764;20;2736701;-45
2022/06/11 10:58:42;;;;;;;;;9.33;8.33;;;;;29.42;42.36;99785.19;6320260;20;2759624;-47
2022/06/11 11:01:27;;;;;;;;;7.67;7.67;;;;;29.17;42.67;99782.22;6318845;20;2746161;-47
2022/06/11 11:04:14;;;;;;;;;6.00;6.00;;;;;29.10;44.34;99785.84;6326317;20;2741539;-47
2022/06/11 11:06:43;;;;;;;;;7.67;7.67;;;;;29.45;43.76;99774.53;6324552;20;2744019;-53
2022/06/11 11:09:24;;;;;;;;;6.00;6.00;;;;;28.83;42.44;99781.31;6317794;20;2738793;-57
2022/06/11 11:12:14;;;;;;;;;9.00;9.00;;;;;29.29;42.14;99770.31;6315495;20;2746192;-53
2022/06/11 11:14:45;;;;;;;;;10.00;10.00;;;;;29.52;43.82;99769.84;6314398;20;2787830;-59
2022/06/11 11:17:20;;;;;;;;;8.00;7.00;;;;;28.96;42.63;99761.97;6326290;20;2748642;-60
2022/06/11 11:22:42;;;;;;;;;8.67;8.67;;;;;28.34;45.06;99765.91;6318271;20;2750423;-59
2022/06/11 11:25:22;;;;;;;;;9.00;9.00;;;;;28.89;44.22;99769.44;6322984;20;2745033;-58
2022/06/11 11:27:50;;;;;;;;;9.00;8.00;;;;;28.60;45.32;99766.00;6315519;20;3468022;-59
2022/06/11 11:30:58;;;;;;;;;8.00;8.00;;;;;28.91;42.75;99766.44;6323472;20;2752458;-60
2022/06/11 11:33:36;;;;;;;;;7.00;6.00;;;;;28.60;43.54;99760.47;6324112;20;2732586;-60
2022/06/11 11:36:25;;;;;;;;;7.67;7.67;;;;;28.78;42.54;99746.06;6320737;20;2747131;-59
2022/06/11 11:39:20;;;;;;;;;8.00;8.00;;;;;29.30;43.90;99754.56;6316768;20;2752332;-60
2022/06/11 11:42:08;;;;;;;;;9.33;8.67;;;;;29.23;42.01;99742.66;6317495;20;2761724;-60
2022/06/11 11:44:50;;;;;;;;;7.67;7.67;;;;;29.36;43.98;99752.84;6326702;20;2748158;-59
2022/06/11 11:47:36;;;;;;;;;8.00;8.00;;;;;28.45;44.43;99743.22;6319189;20;2744086;-60
2022/06/11 11:50:34;;;;;;;;;7.00;6.00;;;;;29.25;43.29;99740.50;6316230;20;2741931;-59
2022/06/11 11:53:29;;;;;;;;;6.00;6.00;;;;;28.87;46.01;99735.63;6316899;20;2734636;-59
2022/06/11 11:56:05;;;;;;;;;11.00;11.00;;;;;29.39;46.46;99733.91;6315661;20;3513849;-58
2022/06/11 11:58:47;;;;;;;;;9.00;7.33;;;;;29.40;43.66;99732.84;6291900;20;2755522;-58
2022/06/11 12:01:27;;;;;;;;;8.00;7.00;;;;;29.71;43.31;99736.84;6313476;20;2750417;-59
2022/06/11 12:04:26;;;;;;;;;11.00;11.00;;;;;29.96;42.28;99736.94;6313686;20;3514853;-59
2022/06/11 12:07:03;;;;;;;;;5.67;5.67;;;;;29.62;44.82;99727.03;6324846;20;2741918;-60